Time;durP1;ratioP1;P1;durP2;ratioP2;P2;SDS_P1;SDS_P2;PMS_P1;PMS_P2;Temp;Humidity;BMP_temperature;BMP_pressure;BME280_temperature;BME280_humidity;BME280_pressure;Samples;Min_cycle;Max_cycle;Signal;HPM_P1;HPM_P2
2022/01/30 00:00:48;;;;;;;11.15;7.55;;;;;;;;;;143725;573;47018;-60
2022/01/30 00:03:15;;;;;;;10.32;7.32;;;;;;;;;;143726;611;46010;-61
2022/01/30 00:05:42;;;;;;;12.88;7.72;;;;;;;;;;143730;693;45018;-61
2022/01/30 00:08:09;;;;;;;10.38;7.40;;;;;;;;;;143730;569;46022;-60
2022/01/30 00:10:39;;;;;;;11.70;7.82;;;;;;;;;;143724;569;47019;-61
2022/01/30 00:13:16;;;;;;;16.83;9.02;;;;;;;;;;143728;585;46010;-60
2022/01/30 00:15:52;;;;;;;12.45;7.70;;;;;;;;;;143728;632;46910;-60
2022/01/30 00:24:13;;;;;;;13.02;8.68;;;;;;;;;;143726;566;46022;-61
2022/01/30 00:26:41;;;;;;;13.43;8.13;;;;;;;;;;143728;569;46910;-60
2022/01/30 00:29:08;;;;;;;10.27;7.90;;;;;;;;;;143730;588;46010;-60
2022/01/30 00:31:36;;;;;;;11.15;8.35;;;;;;;;;;143724;618;47041;-60
2022/01/30 00:34:04;;;;;;;10.93;8.43;;;;;;;;;;143725;615;47010;-60
2022/01/30 00:36:31;;;;;;;12.15;7.75;;;;;;;;;;143729;653;45018;-59
2022/01/30 00:38:59;;;;;;;12.40;7.80;;;;;;;;;;143731;621;46022;-59
2022/01/30 00:41:26;;;;;;;10.43;7.00;;;;;;;;;;143726;564;47018;-60
2022/01/30 00:43:54;;;;;;;14.57;7.82;;;;;;;;;;143726;576;46010;-60
2022/01/30 00:46:20;;;;;;;12.32;7.85;;;;;;;;;;143728;631;45019;-60
2022/01/30 00:48:47;;;;;;;10.60;6.90;;;;;;;;;;143730;604;46010;-59
2022/01/30 00:51:16;;;;;;;10.93;7.93;;;;;;;;;;143725;575;47020;-60
2022/01/30 00:53:44;;;;;;;12.00;7.45;;;;;;;;;;143725;580;47010;-60
2022/01/30 00:56:11;;;;;;;10.70;7.37;;;;;;;;;;143729;663;45019;-60
2022/01/30 00:58:38;;;;;;;13.23;7.72;;;;;;;;;;143729;613;46020;-59
2022/01/30 01:01:05;;;;;;;11.00;7.40;;;;;;;;;;143726;574;47018;-60
2022/01/30 01:03:32;;;;;;;10.15;6.75;;;;;;;;;;143725;565;47010;-60
2022/01/30 01:06:02;;;;;;;12.98;7.75;;;;;;;;;;143728;619;45018;-60
2022/01/30 01:08:45;;;;;;;12.37;7.53;;;;;;;;;;143730;576;46013;-60
2022/01/30 01:11:51;;;;;;;9.43;7.15;;;;;;;;;;143724;569;47018;-59
2022/01/30 01:20:51;;;;;;;8.73;7.00;;;;;;;;;;143727;673;45917;-60
2022/01/30 01:24:59;;;;;;;12.48;6.62;;;;;;;;;;143727;579;47010;-60
2022/01/30 01:27:26;;;;;;;11.82;7.00;;;;;;;;;;143730;588;45020;-60
2022/01/30 01:29:53;;;;;;;9.20;7.07;;;;;;;;;;143731;581;46010;-60
2022/01/30 01:32:20;;;;;;;11.75;7.12;;;;;;;;;;143725;579;47021;-60
2022/01/30 01:34:47;;;;;;;10.45;7.30;;;;;;;;;;143727;648;46010;-60
2022/01/30 01:37:14;;;;;;;10.73;7.60;;;;;;;;;;143728;573;46010;-59
2022/01/30 01:39:41;;;;;;;18.02;8.90;;;;;;;;;;143730;645;46010;-59
2022/01/30 01:42:08;;;;;;;10.95;7.07;;;;;;;;;;143725;565;47023;-59
2022/01/30 01:44:43;;;;;;;10.43;6.80;;;;;;;;;;143727;598;46025;-59
2022/01/30 01:47:12;;;;;;;12.45;7.00;;;;;;;;;;143730;609;45021;-59
2022/01/30 01:49:39;;;;;;;11.02;7.30;;;;;;;;;;143731;566;46020;-59
2022/01/30 01:52:20;;;;;;;16.85;8.80;;;;;;;;;;143724;646;47022;-59
2022/01/30 01:55:06;;;;;;;10.65;7.22;;;;;;;;;;143727;664;46028;-59
2022/01/30 01:57:33;;;;;;;10.85;7.18;;;;;;;;;;143726;662;46020;-60
2022/01/30 02:00:01;;;;;;;10.52;7.20;;;;;;;;;;143729;594;46010;-59
2022/01/30 02:02:28;;;;;;;11.80;7.45;;;;;;;;;;143726;565;47023;-60
2022/01/30 02:04:58;;;;;;;11.25;7.20;;;;;;;;;;143727;570;46027;-59
2022/01/30 02:10:19;;;;;;;16.37;8.02;;;;;;;;;;143730;583;45023;-60
2022/01/30 02:12:50;;;;;;;9.98;6.53;;;;;;;;;;143724;590;47020;-59
2022/01/30 02:15:45;;;;;;;12.07;7.82;;;;;;;;;;143728;586;47010;-60
2022/01/30 02:26:18;;;;;;;9.75;7.55;;;;;;;;;;143729;578;46020;-59
2022/01/30 02:28:45;;;;;;;10.93;6.97;;;;;;;;;;143727;569;45909;-59
2022/01/30 02:31:18;;;;;;;12.13;7.62;;;;;;;;;;143730;612;46010;-59
2022/01/30 02:33:46;;;;;;;9.57;7.25;;;;;;;;;;143726;581;47023;-60
2022/01/30 02:36:12;;;;;;;12.80;7.72;;;;;;;;;;143727;620;46026;-59
2022/01/30 02:38:39;;;;;;;11.65;7.97;;;;;;;;;;143729;564;45021;-59
2022/01/30 02:41:06;;;;;;;10.30;6.95;;;;;;;;;;143731;569;46021;-59
2022/01/30 02:43:39;;;;;;;10.75;7.10;;;;;;;;;;143727;577;47020;-59
2022/01/30 02:46:12;;;;;;;12.90;6.80;;;;;;;;;;143727;647;46011;-59
2022/01/30 02:48:49;;;;;;;10.20;7.65;;;;;;;;;;143731;577;45021;-59
2022/01/30 02:51:18;;;;;;;9.27;6.55;;;;;;;;;;143731;598;46010;-59
2022/01/30 02:53:54;;;;;;;11.82;7.82;;;;;;;;;;143727;613;47021;-59
2022/01/30 02:56:22;;;;;;;10.80;7.07;;;;;;;;;;143724;569;47010;-59
2022/01/30 02:58:48;;;;;;;9.85;6.85;;;;;;;;;;143728;575;45020;-59
2022/01/30 03:01:15;;;;;;;12.55;7.10;;;;;;;;;;143732;598;46020;-59
2022/01/30 03:03:42;;;;;;;9.75;6.47;;;;;;;;;;143728;565;47020;-59
2022/01/30 03:06:09;;;;;;;9.52;6.90;;;;;;;;;;143728;578;46010;-59
2022/01/30 03:08:37;;;;;;;10.25;7.65;;;;;;;;;;143730;633;45023;-59
2022/01/30 03:11:05;;;;;;;15.68;7.40;;;;;;;;;;143732;608;46018;-59
2022/01/30 03:13:32;;;;;;;10.30;7.35;;;;;;;;;;143729;566;47020;-59
2022/01/30 03:16:03;;;;;;;10.70;7.20;;;;;;;;;;143726;589;47025;-59
2022/01/30 03:18:31;;;;;;;9.88;6.95;;;;;;;;;;143733;638;45021;-59
2022/01/30 03:20:58;;;;;;;8.80;6.62;;;;;;;;;;143732;594;46020;-60
2022/01/30 03:23:26;;;;;;;11.68;6.90;;;;;;;;;;143727;617;47022;-59
2022/01/30 03:25:57;;;;;;;10.38;6.78;;;;;;;;;;143728;578;47010;-59
2022/01/30 03:28:24;;;;;;;11.45;7.35;;;;;;;;;;143733;578;45020;-59
2022/01/30 03:30:55;;;;;;;12.80;7.35;;;;;;;;;;143733;615;46020;-59
2022/01/30 03:33:23;;;;;;;9.55;6.65;;;;;;;;;;143728;648;47020;-59
2022/01/30 03:35:50;;;;;;;11.12;6.93;;;;;;;;;;143728;669;46010;-59
2022/01/30 03:38:18;;;;;;;8.98;6.60;;;;;;;;;;143731;597;45021;-59
2022/01/30 03:40:49;;;;;;;12.23;7.60;;;;;;;;;;143733;600;46020;-59
2022/01/30 03:43:16;;;;;;;10.82;6.72;;;;;;;;;;143728;587;47020;-59
2022/01/30 03:45:44;;;;;;;12.13;7.32;;;;;;;;;;143730;627;46010;-59
2022/01/30 03:48:12;;;;;;;13.07;7.10;;;;;;;;;;143730;622;45020;-59
2022/01/30 03:50:39;;;;;;;11.45;6.60;;;;;;;;;;143732;622;46020;-59
2022/01/30 03:53:06;;;;;;;9.13;7.05;;;;;;;;;;143728;564;47022;-59
2022/01/30 03:55:34;;;;;;;13.55;6.57;;;;;;;;;;143727;658;47010;-59
2022/01/30 03:58:01;;;;;;;12.57;6.78;;;;;;;;;;143730;601;45020;-59
2022/01/30 04:00:28;;;;;;;10.18;7.68;;;;;;;;;;143732;607;46012;-59
2022/01/30 04:02:55;;;;;;;13.13;7.80;;;;;;;;;;143727;584;47020;-59
2022/01/30 04:05:23;;;;;;;10.75;7.62;;;;;;;;;;143727;582;46010;-60
2022/01/30 04:07:50;;;;;;;9.73;7.53;;;;;;;;;;143729;603;45911;-59
2022/01/30 04:10:17;;;;;;;11.20;7.62;;;;;;;;;;143731;587;46018;-59
2022/01/30 04:12:45;;;;;;;10.05;7.30;;;;;;;;;;143727;569;47020;-59
2022/01/30 04:15:13;;;;;;;13.00;8.52;;;;;;;;;;143728;574;46010;-59
2022/01/30 04:17:40;;;;;;;11.15;7.70;;;;;;;;;;143730;596;45020;-59
2022/01/30 04:20:08;;;;;;;10.63;7.85;;;;;;;;;;143731;580;46012;-58
2022/01/30 04:22:35;;;;;;;14.02;8.38;;;;;;;;;;143727;578;47021;-59
2022/01/30 04:25:02;;;;;;;8.80;7.35;;;;;;;;;;143726;621;46919;-59
2022/01/30 04:27:29;;;;;;;8.77;7.05;;;;;;;;;;143730;588;45020;-59
2022/01/30 04:29:56;;;;;;;9.73;6.70;;;;;;;;;;143732;651;46013;-59
2022/01/30 04:32:25;;;;;;;10.45;7.35;;;;;;;;;;143727;602;47020;-59
2022/01/30 04:34:57;;;;;;;10.68;7.62;;;;;;;;;;143727;669;46020;-59
2022/01/30 04:37:58;;;;;;;10.40;7.55;;;;;;;;;;143731;621;45911;-59
2022/01/30 04:40:48;;;;;;;9.75;7.85;;;;;;;;;;143732;653;46018;-59
2022/01/30 04:57:36;;;;;;;11.60;8.63;;;;;;;;;;143731;601;46012;-59
2022/01/30 05:03:26;;;;;;;11.27;7.90;;;;;;;;;;143733;564;46016;-59
2022/01/30 05:06:00;;;;;;;12.00;8.10;;;;;;;;;;143727;615;47020;-59
2022/01/30 05:08:27;;;;;;;13.25;9.60;;;;;;;;;;143728;591;46012;-59
2022/01/30 05:10:54;;;;;;;13.95;11.55;;;;;;;;;;143730;570;45020;-59
2022/01/30 05:13:25;;;;;;;15.57;10.15;;;;;;;;;;143732;607;46020;-59
2022/01/30 05:15:52;;;;;;;12.88;10.13;;;;;;;;;;143727;571;47021;-59
2022/01/30 05:18:25;;;;;;;14.38;12.30;;;;;;;;;;143727;606;47010;-59
2022/01/30 05:20:52;;;;;;;14.20;11.80;;;;;;;;;;143731;585;45020;-59
2022/01/30 05:23:19;;;;;;;12.60;10.63;;;;;;;;;;143731;575;46021;-59
2022/01/30 05:25:47;;;;;;;11.48;9.48;;;;;;;;;;143729;565;47020;-59
2022/01/30 05:28:15;;;;;;;12.93;9.32;;;;;;;;;;143726;712;47010;-59
2022/01/30 05:30:44;;;;;;;12.70;10.43;;;;;;;;;;143731;578;45021;-59
2022/01/30 05:33:12;;;;;;;14.68;11.57;;;;;;;;;;143731;618;46012;-59
2022/01/30 05:35:39;;;;;;;12.10;9.82;;;;;;;;;;143729;587;47020;-59
2022/01/30 05:38:06;;;;;;;13.95;11.60;;;;;;;;;;143728;710;46011;-59
2022/01/30 05:40:37;;;;;;;14.10;9.80;;;;;;;;;;143731;621;45024;-59
2022/01/30 05:43:05;;;;;;;15.07;10.90;;;;;;;;;;143731;640;46020;-59
2022/01/30 05:45:41;;;;;;;13.15;10.05;;;;;;;;;;143725;589;47021;-59
2022/01/30 05:48:15;;;;;;;14.00;9.85;;;;;;;;;;143728;606;47020;-59
2022/01/30 05:50:43;;;;;;;12.45;8.77;;;;;;;;;;143732;578;45048;-59
2022/01/30 05:53:10;;;;;;;14.35;9.15;;;;;;;;;;143732;643;46012;-59
2022/01/30 05:55:37;;;;;;;15.40;10.13;;;;;;;;;;143727;611;47020;-59
2022/01/30 05:58:04;;;;;;;17.37;12.80;;;;;;;;;;143728;583;46020;-59
2022/01/30 06:00:31;;;;;;;18.40;14.57;;;;;;;;;;143730;578;45021;-59
2022/01/30 06:02:58;;;;;;;16.65;12.50;;;;;;;;;;143732;569;46012;-59
2022/01/30 06:05:26;;;;;;;14.77;11.65;;;;;;;;;;143725;565;47022;-59
2022/01/30 06:07:57;;;;;;;14.18;10.60;;;;;;;;;;143728;573;46010;-59
2022/01/30 06:10:27;;;;;;;16.33;11.85;;;;;;;;;;143731;605;45910;-59
2022/01/30 06:12:55;;;;;;;15.18;11.32;;;;;;;;;;143732;599;46020;-59
2022/01/30 06:15:22;;;;;;;15.85;11.55;;;;;;;;;;143728;620;47021;-59
2022/01/30 06:17:49;;;;;;;19.60;14.15;;;;;;;;;;143728;583;46929;-59
2022/01/30 06:20:16;;;;;;;16.23;13.00;;;;;;;;;;143731;564;45020;-59
2022/01/30 06:22:43;;;;;;;15.30;12.02;;;;;;;;;;143732;565;46012;-59
2022/01/30 06:25:11;;;;;;;15.30;12.40;;;;;;;;;;143727;593;47022;-59
2022/01/30 06:27:38;;;;;;;14.30;10.50;;;;;;;;;;143728;583;46010;-59
2022/01/30 06:30:07;;;;;;;13.00;9.68;;;;;;;;;;143730;611;45911;-59
2022/01/30 06:32:34;;;;;;;16.87;10.05;;;;;;;;;;143735;564;46012;-59
2022/01/30 06:35:02;;;;;;;15.23;9.95;;;;;;;;;;143728;585;47020;-59
2022/01/30 06:37:31;;;;;;;15.52;10.10;;;;;;;;;;143728;589;46010;-60
2022/01/30 06:39:58;;;;;;;14.50;11.45;;;;;;;;;;143731;745;45020;-60
2022/01/30 06:42:25;;;;;;;16.00;12.18;;;;;;;;;;143731;663;46020;-60
2022/01/30 06:44:52;;;;;;;16.85;12.95;;;;;;;;;;143728;631;47021;-60
2022/01/30 06:47:19;;;;;;;17.42;12.05;;;;;;;;;;143728;581;46010;-60
2022/01/30 06:49:46;;;;;;;17.58;13.40;;;;;;;;;;143729;571;45020;-60
2022/01/30 06:52:14;;;;;;;14.40;11.77;;;;;;;;;;143727;564;47011;-60
2022/01/30 06:54:41;;;;;;;13.62;11.10;;;;;;;;;;143728;571;47020;-61
2022/01/30 06:57:09;;;;;;;15.52;11.68;;;;;;;;;;143726;589;47010;-60
2022/01/30 06:59:36;;;;;;;19.15;12.98;;;;;;;;;;143730;700;45911;-60
2022/01/30 07:02:03;;;;;;;16.92;12.93;;;;;;;;;;143732;601;46020;-60
2022/01/30 07:04:31;;;;;;;17.55;12.52;;;;;;;;;;143731;563;47020;-61
2022/01/30 07:06:58;;;;;;;13.30;10.50;;;;;;;;;;143728;586;46026;-61
2022/01/30 07:09:25;;;;;;;14.43;10.50;;;;;;;;;;143729;584;45020;-61
2022/01/30 07:11:52;;;;;;;14.80;9.90;;;;;;;;;;143732;667;46020;-61
2022/01/30 07:14:19;;;;;;;13.27;10.63;;;;;;;;;;143729;589;47022;-61
2022/01/30 07:16:46;;;;;;;14.45;10.20;;;;;;;;;;143727;611;46010;-61
2022/01/30 07:19:13;;;;;;;16.25;11.90;;;;;;;;;;143731;601;45020;-61
2022/01/30 07:21:40;;;;;;;17.15;10.63;;;;;;;;;;143730;592;46021;-61
2022/01/30 07:24:07;;;;;;;13.48;9.68;;;;;;;;;;143729;645;47020;-61
2022/01/30 07:26:34;;;;;;;14.43;10.32;;;;;;;;;;143727;574;46010;-61
2022/01/30 07:29:03;;;;;;;17.33;9.95;;;;;;;;;;143730;612;45021;-61
2022/01/30 07:31:33;;;;;;;17.73;12.50;;;;;;;;;;143732;606;46020;-62
2022/01/30 07:34:01;;;;;;;14.15;10.90;;;;;;;;;;143728;582;47020;-62
2022/01/30 07:36:28;;;;;;;12.52;9.57;;;;;;;;;;143726;593;47010;-61
2022/01/30 07:38:55;;;;;;;12.57;9.68;;;;;;;;;;143729;662;45020;-61
2022/01/30 07:41:22;;;;;;;13.85;9.38;;;;;;;;;;143729;590;47012;-62
2022/01/30 07:43:50;;;;;;;13.07;9.52;;;;;;;;;;143724;621;47022;-62
2022/01/30 07:46:17;;;;;;;12.20;9.48;;;;;;;;;;143726;595;46010;-62
2022/01/30 07:48:44;;;;;;;13.85;8.95;;;;;;;;;;143727;608;45911;-62
2022/01/30 07:51:11;;;;;;;12.43;9.73;;;;;;;;;;143730;617;46020;-62
2022/01/30 07:53:38;;;;;;;14.60;10.90;;;;;;;;;;143727;578;47020;-63
2022/01/30 07:56:05;;;;;;;16.67;9.32;;;;;;;;;;143725;606;46010;-63
2022/01/30 07:58:32;;;;;;;12.20;9.15;;;;;;;;;;143728;629;45911;-63
2022/01/30 08:00:59;;;;;;;8.65;7.40;;;;;;;;;;143730;590;46012;-63
2022/01/30 08:03:26;;;;;;;11.85;8.02;;;;;;;;;;143724;650;48020;-63
2022/01/30 08:05:53;;;;;;;12.37;7.37;;;;;;;;;;143726;571;46010;-63
2022/01/30 08:08:20;;;;;;;10.95;7.85;;;;;;;;;;143729;613;45021;-63
2022/01/30 08:10:48;;;;;;;8.82;6.57;;;;;;;;;;143730;573;46012;-63
2022/01/30 08:13:16;;;;;;;10.77;7.65;;;;;;;;;;143724;576;47021;-64
2022/01/30 08:15:46;;;;;;;9.52;7.18;;;;;;;;;;143725;564;47010;-64
2022/01/30 08:18:13;;;;;;;10.73;7.07;;;;;;;;;;143728;592;45020;-64
2022/01/30 08:20:42;;;;;;;10.35;7.53;;;;;;;;;;143730;581;46011;-64
2022/01/30 08:23:14;;;;;;;11.82;7.22;;;;;;;;;;143727;694;47020;-64
2022/01/30 08:25:42;;;;;;;9.38;7.68;;;;;;;;;;143727;578;46010;-64
2022/01/30 08:28:09;;;;;;;9.65;7.10;;;;;;;;;;143729;581;45021;-63
2022/01/30 08:30:36;;;;;;;13.57;7.80;;;;;;;;;;143728;582;46021;-63
2022/01/30 08:33:03;;;;;;;9.70;6.82;;;;;;;;;;143726;564;47020;-64
2022/01/30 08:35:32;;;;;;;8.88;7.22;;;;;;;;;;143727;623;46011;-64
2022/01/30 08:37:59;;;;;;;23.48;14.60;;;;;;;;;;143730;596;45021;-65
2022/01/30 08:40:27;;;;;;;31.20;19.10;;;;;;;;;;143729;579;46020;-67
2022/01/30 08:42:54;;;;;;;16.00;10.95;;;;;;;;;;143723;679;47022;-66
2022/01/30 08:45:22;;;;;;;19.62;11.55;;;;;;;;;;143726;653;46010;-65
2022/01/30 08:47:51;;;;;;;15.55;10.50;;;;;;;;;;143728;569;45911;-65
2022/01/30 08:50:19;;;;;;;14.00;9.73;;;;;;;;;;143729;579;46011;-65
2022/01/30 08:52:47;;;;;;;13.62;7.97;;;;;;;;;;143728;663;47020;-64
2022/01/30 08:55:15;;;;;;;13.30;9.05;;;;;;;;;;143726;590;46010;-64
2022/01/30 08:57:42;;;;;;;9.90;6.93;;;;;;;;;;143730;571;46012;-64
2022/01/30 09:00:12;;;;;;;10.88;7.03;;;;;;;;;;143730;579;46021;-64
2022/01/30 09:02:39;;;;;;;9.00;6.80;;;;;;;;;;143725;682;47020;-64
2022/01/30 09:05:08;;;;;;;11.65;7.35;;;;;;;;;;143726;581;46010;-64
2022/01/30 09:07:35;;;;;;;8.27;6.37;;;;;;;;;;143728;624;45911;-64
2022/01/30 09:10:03;;;;;;;12.07;7.43;;;;;;;;;;143730;569;46010;-65
2022/01/30 09:12:30;;;;;;;12.07;7.55;;;;;;;;;;143725;628;47021;-64
2022/01/30 09:14:57;;;;;;;10.05;6.93;;;;;;;;;;143724;588;47010;-64
2022/01/30 09:17:26;;;;;;;8.43;6.30;;;;;;;;;;143727;580;46012;-64
2022/01/30 09:19:53;;;;;;;9.38;6.50;;;;;;;;;;143730;590;46020;-64
2022/01/30 09:22:20;;;;;;;8.90;6.55;;;;;;;;;;143725;583;47021;-64
2022/01/30 09:24:48;;;;;;;11.43;6.25;;;;;;;;;;143725;564;47010;-65
2022/01/30 09:27:15;;;;;;;8.55;6.45;;;;;;;;;;143726;579;45021;-64
2022/01/30 09:29:45;;;;;;;9.10;6.75;;;;;;;;;;143729;587;46020;-64
2022/01/30 09:32:12;;;;;;;7.82;5.87;;;;;;;;;;143725;581;47022;-64
2022/01/30 09:34:39;;;;;;;8.90;6.05;;;;;;;;;;143726;571;46028;-64
2022/01/30 09:37:07;;;;;;;8.98;6.10;;;;;;;;;;143729;621;45911;-63
2022/01/30 09:39:34;;;;;;;7.62;5.65;;;;;;;;;;143730;573;46010;-63
2022/01/30 09:42:02;;;;;;;7.87;5.95;;;;;;;;;;143726;595;47021;-63
2022/01/30 09:44:29;;;;;;;8.48;6.50;;;;;;;;;;143726;570;46011;-63
2022/01/30 09:46:56;;;;;;;8.27;5.82;;;;;;;;;;143726;585;46020;-62
2022/01/30 09:49:25;;;;;;;8.55;5.82;;;;;;;;;;143730;578;46020;-63
2022/01/30 09:51:53;;;;;;;10.55;5.80;;;;;;;;;;143724;587;47023;-65
2022/01/30 09:54:20;;;;;;;7.72;6.03;;;;;;;;;;143728;597;46010;-63
2022/01/30 09:56:48;;;;;;;9.25;5.87;;;;;;;;;;143728;621;45020;-63
2022/01/30 09:59:15;;;;;;;7.97;5.72;;;;;;;;;;143730;594;46021;-63
2022/01/30 10:01:42;;;;;;;7.30;5.50;;;;;;;;;;143725;564;47020;-62
2022/01/30 10:04:09;;;;;;;7.95;5.60;;;;;;;;;;143727;615;47010;-63
2022/01/30 10:07:02;;;;;;;7.22;5.53;;;;;;;;;;143729;570;45021;-62
2022/01/30 10:09:33;;;;;;;7.68;5.40;;;;;;;;;;143730;569;46020;-62
2022/01/30 10:15:16;;;;;;;7.80;5.65;;;;;;;;;;143726;569;46010;-62
2022/01/30 10:17:50;;;;;;;11.87;6.40;;;;;;;;;;143729;573;45020;-62
2022/01/30 10:20:23;;;;;;;10.30;6.43;;;;;;;;;;143732;564;46020;-63
2022/01/30 10:23:02;;;;;;;8.48;4.90;;;;;;;;;;143725;612;47023;-64
2022/01/30 10:25:37;;;;;;;8.90;4.45;;;;;;;;;;143728;605;46010;-65
2022/01/30 10:28:18;;;;;;;8.40;6.12;;;;;;;;;;143728;607;45021;-65
2022/01/30 10:30:51;;;;;;;7.37;5.20;;;;;;;;;;143730;646;46020;-63
2022/01/30 10:33:23;;;;;;;7.45;5.78;;;;;;;;;;143725;620;47022;-63
2022/01/30 10:35:59;;;;;;;8.57;5.72;;;;;;;;;;143726;613;46028;-63
2022/01/30 10:38:40;;;;;;;8.82;6.53;;;;;;;;;;143728;599;45020;-65
2022/01/30 10:41:17;;;;;;;12.20;5.97;;;;;;;;;;143730;597;46020;-64
2022/01/30 10:43:56;;;;;;;9.80;5.90;;;;;;;;;;143725;585;47023;-64
2022/01/30 10:46:34;;;;;;;10.95;6.03;;;;;;;;;;143726;617;46010;-64
2022/01/30 10:49:07;;;;;;;9.40;6.28;;;;;;;;;;143728;626;45020;-64
2022/01/30 10:51:34;;;;;;;8.15;5.97;;;;;;;;;;143730;584;46021;-63
2022/01/30 10:54:13;;;;;;;7.90;5.93;;;;;;;;;;143724;598;47020;-63
2022/01/30 10:56:40;;;;;;;9.57;6.05;;;;;;;;;;143726;632;47010;-62
2022/01/30 10:59:13;;;;;;;8.98;6.60;;;;;;;;;;143728;635;45021;-63
2022/01/30 11:01:44;;;;;;;10.05;6.22;;;;;;;;;;143729;611;46010;-63
2022/01/30 11:04:27;;;;;;;9.10;5.97;;;;;;;;;;143725;631;47021;-63
2022/01/30 11:06:55;;;;;;;8.35;5.80;;;;;;;;;;143726;615;47010;-63
2022/01/30 11:09:30;;;;;;;9.95;5.80;;;;;;;;;;143729;611;45020;-63
2022/01/30 11:12:04;;;;;;;7.87;5.35;;;;;;;;;;143730;617;46020;-64
2022/01/30 11:14:53;;;;;;;9.73;5.75;;;;;;;;;;143725;705;47023;-63
2022/01/30 11:17:22;;;;;;;10.57;6.57;;;;;;;;;;143726;582;46917;-65
2022/01/30 11:19:54;;;;;;;8.27;5.82;;;;;;;;;;143729;569;45021;-64
2022/01/30 11:22:23;;;;;;;8.77;6.03;;;;;;;;;;143730;600;46020;-64
2022/01/30 11:25:12;;;;;;;7.68;5.80;;;;;;;;;;143726;569;47020;-63
2022/01/30 11:27:42;;;;;;;8.32;5.70;;;;;;;;;;143726;822;46010;-63
2022/01/30 11:30:11;;;;;;;9.23;5.95;;;;;;;;;;143725;571;46012;-64
2022/01/30 11:32:39;;;;;;;8.05;5.28;;;;;;;;;;143730;620;46010;-63
2022/01/30 11:35:07;;;;;;;11.80;7.37;;;;;;;;;;143725;564;47022;-63
2022/01/30 11:37:39;;;;;;;10.57;7.32;;;;;;;;;;143726;580;46026;-63
2022/01/30 11:40:17;;;;;;;6.90;5.15;;;;;;;;;;143726;594;46020;-63
2022/01/30 11:42:48;;;;;;;9.40;6.32;;;;;;;;;;143730;596;46021;-64
2022/01/30 11:45:30;;;;;;;8.07;5.95;;;;;;;;;;143726;824;47020;-63
2022/01/30 11:48:00;;;;;;;9.20;6.22;;;;;;;;;;143725;598;47010;-63
2022/01/30 11:50:32;;;;;;;7.47;5.87;;;;;;;;;;143728;651;45021;-63
2022/01/30 11:53:08;;;;;;;8.07;5.40;;;;;;;;;;143730;786;46020;-62
2022/01/30 11:55:40;;;;;;;7.35;5.60;;;;;;;;;;143725;661;47022;-61
2022/01/30 11:58:27;;;;;;;7.57;5.43;;;;;;;;;;143726;622;46028;-61
2022/01/30 12:00:54;;;;;;;7.75;5.62;;;;;;;;;;143728;627;45020;-61
2022/01/30 12:03:38;;;;;;;7.60;5.82;;;;;;;;;;143729;565;46010;-61
2022/01/30 12:06:37;;;;;;;8.95;6.15;;;;;;;;;;143725;569;47021;-61
2022/01/30 12:09:26;;;;;;;8.65;5.70;;;;;;;;;;143726;627;46020;-61
2022/01/30 12:12:03;;;;;;;6.95;5.60;;;;;;;;;;143728;585;45022;-61
2022/01/30 12:14:45;;;;;;;8.35;5.85;;;;;;;;;;143729;608;46010;-60
2022/01/30 12:17:12;;;;;;;7.93;5.87;;;;;;;;;;143725;594;47020;-61
2022/01/30 12:20:05;;;;;;;9.35;6.28;;;;;;;;;;143728;577;46012;-60
2022/01/30 12:22:41;;;;;;;6.85;5.50;;;;;;;;;;143729;616;45022;-61
2022/01/30 12:25:29;;;;;;;8.77;5.82;;;;;;;;;;143730;589;46010;-60
2022/01/30 12:28:00;;;;;;;9.43;6.32;;;;;;;;;;143725;564;47023;-61
2022/01/30 12:30:36;;;;;;;8.88;6.12;;;;;;;;;;143728;590;46030;-61
2022/01/30 12:33:24;;;;;;;8.60;6.32;;;;;;;;;;143729;584;45020;-61
2022/01/30 12:35:51;;;;;;;9.48;5.75;;;;;;;;;;143730;589;46010;-61
2022/01/30 12:38:28;;;;;;;8.07;5.85;;;;;;;;;;143723;585;47022;-61
2022/01/30 12:40:56;;;;;;;10.40;5.70;;;;;;;;;;143724;580;47013;-61
2022/01/30 12:43:31;;;;;;;8.05;5.95;;;;;;;;;;143728;578;45913;-61
2022/01/30 12:46:09;;;;;;;8.13;5.30;;;;;;;;;;143730;573;46010;-61
2022/01/30 12:48:36;;;;;;;10.25;6.55;;;;;;;;;;143725;655;47021;-61
2022/01/30 12:51:08;;;;;;;9.38;5.90;;;;;;;;;;143727;653;47012;-62
2022/01/30 12:53:37;;;;;;;9.52;5.95;;;;;;;;;;143728;733;45020;-61
2022/01/30 12:56:05;;;;;;;7.95;5.62;;;;;;;;;;143730;635;46020;-62
2022/01/30 12:58:35;;;;;;;9.57;5.93;;;;;;;;;;143725;631;47023;-62
2022/01/30 13:01:10;;;;;;;8.38;6.05;;;;;;;;;;143726;634;46012;-61
2022/01/30 13:03:37;;;;;;;8.85;6.50;;;;;;;;;;143729;582;45021;-62
2022/01/30 13:06:05;;;;;;;8.27;6.18;;;;;;;;;;143729;584;46021;-62
2022/01/30 13:08:51;;;;;;;7.55;6.00;;;;;;;;;;143724;618;47022;-61
2022/01/30 13:11:21;;;;;;;7.95;5.43;;;;;;;;;;143730;578;46013;-61
2022/01/30 13:13:57;;;;;;;8.57;6.30;;;;;;;;;;143724;569;47012;-62
2022/01/30 13:16:45;;;;;;;10.73;6.28;;;;;;;;;;143728;569;46010;-62
2022/01/30 13:19:15;;;;;;;8.93;6.05;;;;;;;;;;143725;576;47021;-62
2022/01/30 13:21:47;;;;;;;7.47;5.72;;;;;;;;;;143728;598;46026;-63
2022/01/30 13:24:19;;;;;;;7.87;6.10;;;;;;;;;;143729;585;45020;-62
2022/01/30 13:26:47;;;;;;;9.15;6.50;;;;;;;;;;143730;687;46021;-62
2022/01/30 13:29:21;;;;;;;8.05;5.80;;;;;;;;;;143724;575;47020;-62
2022/01/30 13:31:50;;;;;;;9.00;6.30;;;;;;;;;;143726;571;46012;-62
2022/01/30 13:34:21;;;;;;;7.55;5.78;;;;;;;;;;143726;564;46013;-62
2022/01/30 13:36:54;;;;;;;7.93;6.10;;;;;;;;;;143730;609;46010;-62
2022/01/30 13:39:27;;;;;;;8.20;6.03;;;;;;;;;;143725;577;47020;-62
2022/01/30 13:42:16;;;;;;;7.87;5.57;;;;;;;;;;143726;578;46012;-62
2022/01/30 13:44:51;;;;;;;8.05;6.05;;;;;;;;;;143727;587;46020;-62
2022/01/30 13:47:20;;;;;;;8.77;6.72;;;;;;;;;;143730;584;46010;-62
2022/01/30 13:49:49;;;;;;;10.32;5.97;;;;;;;;;;143726;589;47021;-62
2022/01/30 13:52:19;;;;;;;8.98;6.37;;;;;;;;;;143727;677;46012;-61
2022/01/30 13:55:08;;;;;;;8.13;5.90;;;;;;;;;;143728;582;45020;-62
2022/01/30 13:57:38;;;;;;;8.60;6.22;;;;;;;;;;143730;591;46011;-62
2022/01/30 14:00:11;;;;;;;8.63;6.65;;;;;;;;;;143726;626;47020;-62
2022/01/30 14:02:59;;;;;;;10.48;5.87;;;;;;;;;;143727;598;46030;-61
2022/01/30 14:05:34;;;;;;;7.90;6.12;;;;;;;;;;143730;583;45021;-62
2022/01/30 14:08:08;;;;;;;10.27;6.85;;;;;;;;;;143731;609;46010;-62
2022/01/30 14:10:35;;;;;;;8.85;6.70;;;;;;;;;;143727;589;47022;-62
2022/01/30 14:13:28;;;;;;;7.47;6.28;;;;;;;;;;143727;591;46013;-62
2022/01/30 14:16:05;;;;;;;9.07;6.22;;;;;;;;;;143728;589;46020;-60
2022/01/30 14:18:35;;;;;;;9.68;6.57;;;;;;;;;;143730;606;46023;-61
2022/01/30 14:21:15;;;;;;;7.62;6.32;;;;;;;;;;143725;579;47020;-61
2022/01/30 14:23:41;;;;;;;9.07;6.53;;;;;;;;;;143729;569;46012;-61
2022/01/30 14:26:23;;;;;;;9.02;5.87;;;;;;;;;;143732;590;45021;-61
2022/01/30 14:29:09;;;;;;;7.40;5.68;;;;;;;;;;143730;659;46010;-61
2022/01/30 14:31:52;;;;;;;10.02;7.00;;;;;;;;;;143724;571;47020;-61
2022/01/30 14:34:19;;;;;;;9.23;6.68;;;;;;;;;;143727;575;46012;-61
2022/01/30 14:36:46;;;;;;;7.20;5.55;;;;;;;;;;143729;614;45020;-61
2022/01/30 14:39:14;;;;;;;8.55;6.32;;;;;;;;;;143731;578;46020;-61
2022/01/30 14:41:41;;;;;;;8.40;6.10;;;;;;;;;;143726;613;48021;-61
2022/01/30 14:44:09;;;;;;;9.13;6.62;;;;;;;;;;143727;585;47012;-60
2022/01/30 14:46:36;;;;;;;9.55;6.45;;;;;;;;;;143729;579;45020;-60
2022/01/30 14:49:04;;;;;;;8.93;6.10;;;;;;;;;;143731;564;46010;-60
2022/01/30 14:51:31;;;;;;;7.50;6.18;;;;;;;;;;143726;593;47020;-60
2022/01/30 14:53:58;;;;;;;7.97;6.10;;;;;;;;;;143727;611;46012;-60
2022/01/30 14:56:26;;;;;;;10.23;6.53;;;;;;;;;;143730;566;45021;-60
2022/01/30 14:58:53;;;;;;;9.50;6.60;;;;;;;;;;143731;674;46010;-61
2022/01/30 15:01:20;;;;;;;7.85;6.47;;;;;;;;;;143726;602;47020;-61
2022/01/30 15:03:47;;;;;;;9.27;6.45;;;;;;;;;;143727;564;46013;-60
2022/01/30 15:06:14;;;;;;;9.85;6.55;;;;;;;;;;143728;569;45020;-60
2022/01/30 15:08:41;;;;;;;8.27;6.15;;;;;;;;;;143729;585;47010;-60
2022/01/30 15:11:08;;;;;;;9.00;6.22;;;;;;;;;;143726;693;47021;-61
2022/01/30 15:13:38;;;;;;;11.27;6.25;;;;;;;;;;143726;565;47035;-60
2022/01/30 15:16:10;;;;;;;8.48;6.25;;;;;;;;;;143730;592;45020;-60
2022/01/30 15:18:42;;;;;;;12.10;6.70;;;;;;;;;;143731;583;46010;-60
2022/01/30 15:21:13;;;;;;;13.45;6.72;;;;;;;;;;143726;747;47022;-60
2022/01/30 15:23:41;;;;;;;7.47;6.30;;;;;;;;;;143726;585;46919;-60
2022/01/30 15:26:08;;;;;;;9.10;6.60;;;;;;;;;;143730;578;45021;-61
2022/01/30 15:28:36;;;;;;;9.35;7.35;;;;;;;;;;143731;566;46020;-60
2022/01/30 15:31:03;;;;;;;9.15;7.05;;;;;;;;;;143726;564;47022;-60
2022/01/30 15:33:30;;;;;;;11.70;7.03;;;;;;;;;;143726;586;47012;-60
2022/01/30 15:35:58;;;;;;;10.02;7.32;;;;;;;;;;143730;614;46018;-60
2022/01/30 15:38:25;;;;;;;8.45;6.93;;;;;;;;;;143732;582;46020;-60